Time;durP1;ratioP1;P1;durP2;ratioP2;P2;SDS_P1;SDS_P2;PMS_P1;PMS_P2;Temp;Humidity;BMP_temperature;BMP_pressure;BME280_temperature;BME280_humidity;BME280_pressure;Samples;Min_cycle;Max_cycle;Signal;HPM_P1;HPM_P2
2024/03/15 00:02:15;;;;;;;12.20;8.85;;;12.40;99.90;;;;;;5091029;28;20035;-69
2024/03/15 00:04:41;;;;;;;10.13;7.40;;;12.50;99.90;;;;;;5091398;28;20473;-68
2024/03/15 00:07:07;;;;;;;9.95;7.75;;;12.40;99.90;;;;;;5091780;28;20044;-69
2024/03/15 00:09:32;;;;;;;11.52;7.57;;;12.40;99.90;;;;;;5089929;28;20040;-69
2024/03/15 00:12:01;;;;;;;11.65;7.90;;;12.40;99.90;;;;;;5090939;28;20192;-69
2024/03/15 00:14:27;;;;;;;9.88;7.38;;;12.30;99.90;;;;;;5091394;28;20036;-69
2024/03/15 00:16:56;;;;;;;11.32;8.25;;;12.20;99.90;;;;;;5091478;28;20042;-69
2024/03/15 00:19:22;;;;;;;10.50;7.72;;;12.20;99.90;;;;;;5091109;28;20039;-68
2024/03/15 00:21:48;;;;;;;11.50;6.75;;;12.20;99.90;;;;;;5090971;28;20119;-69
2024/03/15 00:24:14;;;;;;;12.63;8.25;;;12.10;99.90;;;;;;5091233;28;20040;-69
2024/03/15 00:26:41;;;;;;;13.32;8.25;;;12.10;99.90;;;;;;5091434;28;20080;-69
2024/03/15 00:29:07;;;;;;;12.55;8.18;;;12.10;99.90;;;;;;5091181;28;20036;-69
2024/03/15 00:31:33;;;;;;;11.75;7.35;;;12.00;99.90;;;;;;5089770;28;20093;-69
2024/03/15 00:33:59;;;;;;;11.55;7.68;;;12.00;99.90;;;;;;5091034;28;20043;-69
2024/03/15 00:36:24;;;;;;;11.18;7.45;;;12.00;99.90;;;;;;5089858;28;20414;-69
2024/03/15 00:38:53;;;;;;;11.38;7.57;;;11.90;99.90;;;;;;5093709;28;20036;-69
2024/03/15 00:41:19;;;;;;;11.93;7.65;;;11.90;99.90;;;;;;5093786;28;20078;-68
2024/03/15 00:43:45;;;;;;;10.75;7.90;;;11.80;99.90;;;;;;5094570;28;20044;-69
2024/03/15 00:46:11;;;;;;;12.13;7.60;;;11.70;99.90;;;;;;5095106;28;20534;-69
2024/03/15 00:48:37;;;;;;;14.25;7.88;;;11.70;99.90;;;;;;5094608;28;20576;-69
2024/03/15 00:51:04;;;;;;;10.90;7.43;;;11.70;99.90;;;;;;5093613;28;20040;-69
2024/03/15 00:53:30;;;;;;;12.45;6.90;;;11.70;99.90;;;;;;5094422;28;20036;-69
2024/03/15 00:55:56;;;;;;;13.57;7.20;;;11.70;99.90;;;;;;5093485;28;20500;-69
2024/03/15 00:58:22;;;;;;;11.00;7.38;;;11.60;99.90;;;;;;5094837;28;20042;-69
2024/03/15 01:00:48;;;;;;;12.38;7.57;;;11.70;99.90;;;;;;5093314;28;20044;-68
2024/03/15 01:03:18;;;;;;;12.68;7.18;;;11.60;99.90;;;;;;5092771;28;20533;-69
2024/03/15 01:05:44;;;;;;;12.93;7.70;;;11.60;99.90;;;;;;5094852;28;20036;-69
2024/03/15 01:08:10;;;;;;;11.27;7.80;;;11.60;99.90;;;;;;5094784;28;20055;-69
2024/03/15 01:10:36;;;;;;;11.73;7.28;;;11.60;99.90;;;;;;5094255;28;20036;-69
2024/03/15 01:13:03;;;;;;;9.68;7.55;;;11.70;99.90;;;;;;5093949;28;20036;-68
2024/03/15 01:15:29;;;;;;;10.70;7.20;;;11.60;99.90;;;;;;5094446;28;20444;-69
2024/03/15 01:17:55;;;;;;;13.88;7.65;;;11.60;99.90;;;;;;5094327;28;20054;-69
2024/03/15 01:20:21;;;;;;;10.88;7.60;;;11.60;99.90;;;;;;5094314;28;20040;-68
2024/03/15 01:22:48;;;;;;;11.00;6.93;;;11.70;99.90;;;;;;5093735;28;20058;-68
2024/03/15 01:25:14;;;;;;;9.45;6.50;;;11.60;99.90;;;;;;5094318;28;20043;-69
2024/03/15 01:27:40;;;;;;;10.07;6.55;;;11.60;99.90;;;;;;5092982;28;20075;-69
2024/03/15 01:30:09;;;;;;;13.18;7.57;;;11.60;99.90;;;;;;5093893;28;20047;-68
2024/03/15 01:32:35;;;;;;;10.18;6.88;;;11.60;99.90;;;;;;5093733;28;20052;-69
2024/03/15 01:35:05;;;;;;;11.10;6.75;;;11.60;99.90;;;;;;5092841;28;20097;-69
2024/03/15 01:37:30;;;;;;;10.15;7.10;;;11.60;99.90;;;;;;5094101;28;20067;-69
2024/03/15 01:39:57;;;;;;;10.00;7.03;;;11.60;99.90;;;;;;5092386;28;20078;-69
2024/03/15 01:42:22;;;;;;;11.35;6.93;;;11.50;99.90;;;;;;5093514;28;20404;-68
2024/03/15 01:44:52;;;;;;;10.68;7.40;;;11.60;99.90;;;;;;5092384;28;20046;-69
2024/03/15 01:47:27;;;;;;;9.93;6.88;;;11.50;99.90;;;;;;5093805;28;20535;-69
2024/03/15 01:49:54;;;;;;;10.52;7.82;;;11.50;99.90;;;;;;5093550;28;20035;-69
2024/03/15 01:52:24;;;;;;;11.13;6.72;;;11.50;99.90;;;;;;5092062;28;20044;-69
2024/03/15 01:54:50;;;;;;;9.95;6.00;;;11.60;99.90;;;;;;5092636;28;20048;-69
2024/03/15 01:57:17;;;;;;;13.18;7.18;;;11.50;99.90;;;;;;5094299;28;20043;-69
2024/03/15 01:59:43;;;;;;;11.98;6.63;;;11.60;99.90;;;;;;5092211;28;20040;-68
2024/03/15 02:02:10;;;;;;;10.45;7.20;;;11.60;99.90;;;;;;5093443;28;20036;-68
2024/03/15 02:04:36;;;;;;;8.93;6.43;;;11.60;99.90;;;;;;5092392;28;20079;-69
2024/03/15 02:07:02;;;;;;;9.45;7.05;;;11.60;99.90;;;;;;5093419;28;20090;-69
2024/03/15 02:09:28;;;;;;;11.82;7.13;;;11.70;99.90;;;;;;5093203;28;20406;-69
2024/03/15 02:11:57;;;;;;;8.73;6.10;;;11.70;99.90;;;;;;5092815;28;20040;-69
2024/03/15 02:14:23;;;;;;;11.60;6.28;;;11.70;99.90;;;;;;5093384;28;20036;-68
2024/03/15 02:16:49;;;;;;;10.23;6.78;;;11.80;99.90;;;;;;5093392;28;20039;-69
2024/03/15 02:19:15;;;;;;;12.30;7.07;;;11.70;99.90;;;;;;5093056;28;20052;-69
2024/03/15 02:21:41;;;;;;;8.50;6.50;;;11.70;99.90;;;;;;5091468;28;20039;-69
2024/03/15 02:24:07;;;;;;;9.10;6.38;;;11.70;99.90;;;;;;5093014;28;20055;-68
2024/03/15 02:26:33;;;;;;;8.77;6.70;;;11.70;99.90;;;;;;5092997;28;20439;-69
2024/03/15 02:29:01;;;;;;;10.32;6.22;;;11.80;99.90;;;;;;5092173;28;20054;-69
2024/03/15 02:31:27;;;;;;;8.48;6.55;;;11.80;99.90;;;;;;5092573;28;20048;-68
2024/03/15 02:33:54;;;;;;;8.07;6.50;;;11.80;99.90;;;;;;5083153;28;20040;-69
2024/03/15 02:36:20;;;;;;;11.45;6.68;;;11.80;99.90;;;;;;5072858;28;20036;-69
2024/03/15 02:38:47;;;;;;;9.80;6.63;;;11.70;99.90;;;;;;5072250;28;20029;-69
2024/03/15 02:41:13;;;;;;;10.57;6.93;;;11.80;99.90;;;;;;5071226;28;20108;-69
2024/03/15 02:43:44;;;;;;;12.05;7.30;;;11.70;99.90;;;;;;5070981;28;20036;-69
2024/03/15 02:46:10;;;;;;;8.30;5.93;;;11.80;99.90;;;;;;5072549;28;20078;-68
2024/03/15 02:48:39;;;;;;;9.73;6.80;;;11.70;99.90;;;;;;5071134;28;20431;-69
2024/03/15 02:51:07;;;;;;;10.02;7.07;;;11.70;99.90;;;;;;5071306;28;20071;-69
2024/03/15 02:53:33;;;;;;;9.68;6.75;;;11.80;99.90;;;;;;5071464;28;20423;-69
2024/03/15 02:56:00;;;;;;;10.13;7.28;;;11.80;99.90;;;;;;5070979;28;20033;-69
2024/03/15 02:58:27;;;;;;;9.85;7.15;;;11.70;99.90;;;;;;5071155;28;20503;-69
2024/03/15 03:00:52;;;;;;;11.65;7.40;;;11.80;99.90;;;;;;5071468;28;20098;-69
2024/03/15 03:03:19;;;;;;;11.18;8.27;;;11.80;99.90;;;;;;5070281;28;20079;-69
2024/03/15 03:05:45;;;;;;;10.23;7.50;;;11.80;99.90;;;;;;5072074;28;20497;-69
2024/03/15 03:08:11;;;;;;;10.93;6.75;;;11.80;99.90;;;;;;5071589;28;20041;-69
2024/03/15 03:10:37;;;;;;;12.25;7.32;;;11.80;99.90;;;;;;5070413;28;20439;-69
2024/03/15 03:13:02;;;;;;;12.52;7.47;;;12.00;99.90;;;;;;5070007;28;20124;-69
2024/03/15 03:15:29;;;;;;;10.88;7.60;;;11.90;99.90;;;;;;5070816;28;20475;-69
2024/03/15 03:17:56;;;;;;;11.00;7.07;;;11.90;99.90;;;;;;5072030;28;20249;-69
2024/03/15 03:20:23;;;;;;;10.70;7.65;;;11.90;99.90;;;;;;5053863;28;20098;-69
2024/03/15 03:22:51;;;;;;;13.80;7.55;;;11.90;99.90;;;;;;5070957;28;20059;-69
2024/03/15 03:25:21;;;;;;;11.98;8.52;;;11.90;99.90;;;;;;5071918;28;20086;-69
2024/03/15 03:27:47;;;;;;;11.60;7.88;;;11.90;99.90;;;;;;5070639;28;20041;-69
2024/03/15 03:30:13;;;;;;;13.27;7.97;;;11.80;99.90;;;;;;5071499;28;20036;-69
2024/03/15 03:32:42;;;;;;;13.10;7.72;;;11.80;99.90;;;;;;5069793;28;20040;-69
2024/03/15 03:35:07;;;;;;;11.52;8.07;;;11.80;99.90;;;;;;5071542;28;20041;-68
2024/03/15 03:37:34;;;;;;;13.68;9.15;;;11.80;99.90;;;;;;5071735;28;20044;-69
2024/03/15 03:40:00;;;;;;;13.27;9.07;;;11.80;99.90;;;;;;5071507;28;20124;-68
2024/03/15 03:42:27;;;;;;;12.32;7.53;;;11.70;99.90;;;;;;5071213;28;20125;-69
2024/03/15 03:44:57;;;;;;;16.13;8.30;;;11.70;99.90;;;;;;5071511;28;20078;-69
2024/03/15 03:47:23;;;;;;;11.73;8.25;;;11.70;99.90;;;;;;5071588;28;20082;-69
2024/03/15 03:49:52;;;;;;;12.65;7.90;;;11.80;99.90;;;;;;5071103;28;20063;-69
2024/03/15 03:52:18;;;;;;;13.75;8.48;;;11.70;99.90;;;;;;5069691;28;20045;-69
2024/03/15 03:54:44;;;;;;;10.77;7.80;;;11.70;99.90;;;;;;5071435;28;20036;-68
2024/03/15 03:57:28;;;;;;;12.77;8.77;;;11.70;99.90;;;;;;5071565;28;20051;-69
2024/03/15 03:59:54;;;;;;;13.52;8.13;;;11.80;99.90;;;;;;5053197;28;20036;-69
2024/03/15 04:02:19;;;;;;;16.00;9.43;;;11.70;99.90;;;;;;5070830;28;20097;-69
2024/03/15 04:04:45;;;;;;;15.30;9.10;;;11.60;99.90;;;;;;5071121;28;20038;-69
2024/03/15 04:07:11;;;;;;;13.95;9.20;;;11.70;99.90;;;;;;5071328;28;20097;-69
2024/03/15 04:09:38;;;;;;;12.85;8.88;;;11.80;99.90;;;;;;5071174;28;20120;-69
2024/03/15 04:12:04;;;;;;;12.52;8.60;;;11.70;99.90;;;;;;5072412;28;20044;-69
2024/03/15 04:14:30;;;;;;;13.48;9.10;;;11.70;99.90;;;;;;5075226;28;20036;-69
2024/03/15 04:16:56;;;;;;;13.07;9.05;;;11.60;99.90;;;;;;5073928;28;20071;-69
2024/03/15 04:19:24;;;;;;;14.40;9.40;;;11.60;99.90;;;;;;5075248;28;20197;-69
2024/03/15 04:21:51;;;;;;;14.88;8.75;;;11.70;99.90;;;;;;5074718;28;20641;-69
2024/03/15 04:24:17;;;;;;;14.27;8.65;;;11.60;99.90;;;;;;5073722;28;20036;-69
2024/03/15 04:26:43;;;;;;;12.55;8.52;;;11.60;99.90;;;;;;5073842;28;20047;-69
2024/03/15 04:29:08;;;;;;;12.90;8.65;;;11.60;99.90;;;;;;5073571;28;20040;-69
2024/03/15 04:31:34;;;;;;;13.63;9.60;;;11.70;99.90;;;;;;5074439;28;20044;-70
2024/03/15 04:34:00;;;;;;;14.27;9.57;;;11.70;99.90;;;;;;5074779;28;20116;-69
2024/03/15 04:36:30;;;;;;;14.30;9.60;;;11.60;99.90;;;;;;5073440;28;20037;-69
2024/03/15 04:38:56;;;;;;;18.38;9.40;;;11.50;99.90;;;;;;5074681;28;20143;-69
2024/03/15 04:41:22;;;;;;;13.82;9.65;;;11.60;99.90;;;;;;5074729;28;20049;-69
2024/03/15 04:43:49;;;;;;;16.17;9.98;;;11.60;99.90;;;;;;5074420;28;20041;-69
2024/03/15 04:46:17;;;;;;;14.30;10.00;;;11.50;99.90;;;;;;5074583;28;20059;-69
2024/03/15 04:48:43;;;;;;;14.48;9.45;;;11.50;99.90;;;;;;5073167;28;20052;-69
2024/03/15 04:51:10;;;;;;;14.07;9.68;;;11.40;99.90;;;;;;5074749;28;20404;-69
2024/03/15 04:53:36;;;;;;;20.10;11.23;;;11.60;99.90;;;;;;5072668;28;20063;-69
2024/03/15 04:56:02;;;;;;;16.92;9.52;;;11.60;99.90;;;;;;5074618;28;20408;-69
2024/03/15 04:58:30;;;;;;;17.77;10.02;;;11.50;99.90;;;;;;5073372;28;20037;-69
2024/03/15 05:00:56;;;;;;;16.80;10.13;;;11.60;99.90;;;;;;5074488;28;20040;-69
2024/03/15 05:03:22;;;;;;;14.68;10.38;;;11.60;99.90;;;;;;5073954;28;20424;-68
2024/03/15 05:05:47;;;;;;;15.05;10.70;;;11.50;99.90;;;;;;5073137;28;20062;-69
2024/03/15 05:08:13;;;;;;;15.60;10.88;;;11.60;99.90;;;;;;5074328;28;20552;-69
2024/03/15 05:10:39;;;;;;;14.82;10.02;;;11.50;99.90;;;;;;5072799;28;20389;-69
2024/03/15 05:13:06;;;;;;;16.00;10.15;;;11.60;99.90;;;;;;5072349;28;20055;-69
2024/03/15 05:15:33;;;;;;;17.80;12.07;;;11.60;99.90;;;;;;5072882;28;20524;-69
2024/03/15 05:17:59;;;;;;;19.35;11.07;;;11.50;99.90;;;;;;5074468;28;20047;-69
2024/03/15 05:20:25;;;;;;;16.15;10.43;;;11.60;99.90;;;;;;5073777;28;20543;-69
2024/03/15 05:22:51;;;;;;;14.88;11.32;;;11.50;99.90;;;;;;5073333;28;20127;-69
2024/03/15 05:25:16;;;;;;;17.90;11.35;;;11.50;99.90;;;;;;5079209;22;20047;-71
2024/03/15 05:27:42;;;;;;;18.50;11.40;;;11.50;99.90;;;;;;5052587;28;20037;-71
2024/03/15 05:30:08;;;;;;;19.10;11.52;;;11.50;99.90;;;;;;5053537;28;20037;-71
2024/03/15 05:32:34;;;;;;;20.42;13.50;;;11.50;99.90;;;;;;5059013;28;20040;-71
2024/03/15 05:35:00;;;;;;;16.38;11.70;;;11.30;99.90;;;;;;5072417;28;20067;-71
2024/03/15 05:37:26;;;;;;;18.60;11.68;;;11.30;99.90;;;;;;5073761;28;20496;-71
2024/03/15 05:39:52;;;;;;;20.88;12.23;;;11.30;99.90;;;;;;5073428;28;20046;-71
2024/03/15 05:42:18;;;;;;;16.77;11.68;;;11.40;99.90;;;;;;5072017;28;20032;-72
2024/03/15 05:44:47;;;;;;;17.65;11.80;;;11.50;99.90;;;;;;5073534;28;20040;-71
2024/03/15 05:47:16;;;;;;;19.02;11.27;;;11.50;99.90;;;;;;5073683;28;20094;-71
2024/03/15 05:49:41;;;;;;;20.90;12.57;;;11.40;99.90;;;;;;5073386;28;20067;-71
2024/03/15 05:52:14;;;;;;;16.63;11.77;;;11.30;99.90;;;;;;5073143;28;20443;-72
2024/03/15 05:54:40;;;;;;;22.67;12.50;;;11.40;99.90;;;;;;5071995;28;20143;-71
2024/03/15 05:57:07;;;;;;;18.23;12.32;;;11.30;99.90;;;;;;5071886;28;20123;-71
2024/03/15 05:59:33;;;;;;;20.42;13.70;;;11.40;99.90;;;;;;5073312;28;20036;-71
2024/03/15 06:01:58;;;;;;;17.60;13.38;;;11.40;99.90;;;;;;5073320;28;20469;-71
2024/03/15 06:04:24;;;;;;;21.60;13.07;;;11.30;99.90;;;;;;5073328;28;20108;-71
2024/03/15 06:06:50;;;;;;;20.58;12.82;;;11.40;99.90;;;;;;5072038;28;20068;-71
2024/03/15 06:09:16;;;;;;;20.77;13.88;;;11.30;99.90;;;;;;5073984;28;20036;-71
2024/03/15 06:11:42;;;;;;;21.73;14.38;;;11.40;99.90;;;;;;5071731;28;20038;-71
2024/03/15 06:14:11;;;;;;;19.08;13.15;;;11.40;99.90;;;;;;5073458;28;20044;-71
2024/03/15 06:16:37;;;;;;;20.50;13.65;;;11.30;99.90;;;;;;5072205;28;20104;-71
2024/03/15 06:19:04;;;;;;;19.60;13.38;;;11.30;99.90;;;;;;5072818;28;20488;-71
2024/03/15 06:21:30;;;;;;;22.08;14.00;;;11.30;99.90;;;;;;5072500;28;20087;-71
2024/03/15 06:23:55;;;;;;;19.80;14.25;;;11.30;99.90;;;;;;5072958;28;20451;-71
2024/03/15 06:26:22;;;;;;;21.27;14.32;;;11.50;99.90;;;;;;5073121;28;20059;-72
2024/03/15 06:28:52;;;;;;;22.20;15.77;;;11.40;99.90;;;;;;5072828;28;20129;-72
2024/03/15 06:31:18;;;;;;;22.67;14.60;;;11.50;99.90;;;;;;5072759;28;20527;-71
2024/03/15 06:33:44;;;;;;;20.15;14.27;;;11.50;99.90;;;;;;5073109;28;20093;-72
2024/03/15 06:36:16;;;;;;;22.45;14.55;;;11.50;99.90;;;;;;5071816;28;20043;-71
2024/03/15 06:41:29;;;;;;;21.65;13.55;;;11.50;99.90;;;;;;5073022;28;20124;-72
2024/03/15 06:46:41;;;;;;;23.42;15.93;;;11.70;99.90;;;;;;5072389;28;20078;-71
2024/03/15 06:49:24;;;;;;;21.60;14.85;;;11.60;99.90;;;;;;5072232;28;20577;-71
2024/03/15 06:54:34;;;;;;;22.05;14.27;;;11.60;99.90;;;;;;5070994;28;20044;-71
2024/03/15 06:57:00;;;;;;;22.42;15.20;;;11.60;99.90;;;;;;5072255;28;20043;-72
2024/03/15 06:59:26;;;;;;;24.90;16.02;;;11.70;99.90;;;;;;5070670;28;20577;-71
2024/03/15 07:01:52;;;;;;;24.77;16.75;;;11.60;99.90;;;;;;5071924;28;20037;-71
2024/03/15 07:04:19;;;;;;;21.65;15.18;;;11.60;99.90;;;;;;5070838;28;20048;-71
2024/03/15 07:06:45;;;;;;;24.05;16.90;;;11.70;99.90;;;;;;5072283;28;20090;-71
2024/03/15 07:09:14;;;;;;;22.70;15.70;;;11.70;99.90;;;;;;5071920;28;20654;-71
2024/03/15 07:11:45;;;;;;;23.88;15.73;;;11.90;99.90;;;;;;5070220;28;20524;-71
2024/03/15 07:14:11;;;;;;;20.42;14.77;;;11.80;99.90;;;;;;5071950;28;20080;-71
2024/03/15 07:16:37;;;;;;;27.35;15.32;;;11.80;99.90;;;;;;5070872;28;20086;-71
2024/03/15 07:19:05;;;;;;;23.83;16.95;;;11.90;99.90;;;;;;5071700;28;20487;-71
2024/03/15 07:21:32;;;;;;;23.35;15.95;;;11.80;99.90;;;;;;5071413;28;20496;-71
2024/03/15 07:23:58;;;;;;;22.02;15.90;;;11.80;99.90;;;;;;5071657;28;20041;-70
2024/03/15 07:26:24;;;;;;;24.13;15.82;;;11.80;99.90;;;;;;5071733;28;20036;-71
2024/03/15 07:28:50;;;;;;;25.08;15.93;;;11.80;99.90;;;;;;5071255;28;20059;-71
2024/03/15 07:31:15;;;;;;;24.65;15.30;;;11.80;99.90;;;;;;5071544;28;20033;-71
2024/03/15 07:33:42;;;;;;;23.98;16.05;;;12.00;99.90;;;;;;5071118;28;20062;-71
2024/03/15 07:36:13;;;;;;;20.58;15.75;;;11.80;99.90;;;;;;5062205;28;20169;-71
2024/03/15 07:38:40;;;;;;;27.63;16.55;;;12.00;99.90;;;;;;5066790;28;20032;-71
2024/03/15 07:41:10;;;;;;;25.20;17.33;;;11.90;99.90;;;;;;5071961;28;20063;-73
2024/03/15 07:43:36;;;;;;;23.65;15.98;;;11.90;99.90;;;;;;5069489;28;20051;-75
2024/03/15 07:46:02;;;;;;;21.73;15.60;;;11.90;99.90;;;;;;5053444;28;20040;-76
2024/03/15 07:48:28;;;;;;;23.00;16.80;;;12.10;99.90;;;;;;5071534;28;20113;-75
2024/03/15 07:50:53;;;;;;;22.65;15.50;;;12.20;99.90;;;;;;5069996;28;20450;-76
2024/03/15 07:53:19;;;;;;;23.33;16.27;;;12.20;99.90;;;;;;5069468;28;20086;-76
2024/03/15 07:55:45;;;;;;;25.70;16.13;;;12.20;99.90;;;;;;5070203;28;20029;-76
2024/03/15 07:58:11;;;;;;;25.92;17.02;;;12.10;99.90;;;;;;5070216;28;20033;-76
2024/03/15 08:00:38;;;;;;;27.48;15.30;;;12.10;99.90;;;;;;5069804;28;20040;-75
2024/03/15 08:03:04;;;;;;;27.60;18.02;;;12.10;99.90;;;;;;5069691;28;20058;-75
2024/03/15 08:05:30;;;;;;;24.38;17.08;;;12.30;99.90;;;;;;5070126;28;20033;-76
2024/03/15 08:07:56;;;;;;;26.42;16.67;;;12.40;99.90;;;;;;5069732;28;20036;-76
2024/03/15 08:10:22;;;;;;;22.55;15.63;;;12.30;99.90;;;;;;5070036;28;20426;-76
2024/03/15 08:12:49;;;;;;;28.25;16.13;;;12.50;99.90;;;;;;5069770;28;20044;-76
2024/03/15 08:15:14;;;;;;;26.88;16.73;;;12.60;99.90;;;;;;5071279;28;20130;-76
2024/03/15 08:17:40;;;;;;;22.13;15.32;;;12.40;99.90;;;;;;5071410;28;20091;-76
2024/03/15 08:20:10;;;;;;;23.75;15.55;;;12.40;99.90;;;;;;5071095;28;20041;-76
2024/03/15 08:22:37;;;;;;;19.55;13.93;;;12.40;99.90;;;;;;5069450;28;20488;-76
2024/03/15 08:25:06;;;;;;;23.42;14.60;;;12.60;99.90;;;;;;5069831;28;20094;-76
2024/03/15 08:27:33;;;;;;;29.15;15.93;;;12.60;99.90;;;;;;5069912;28;20083;-76
2024/03/15 08:30:00;;;;;;;20.33;13.82;;;12.50;99.90;;;;;;5069552;28;20123;-76
2024/03/15 08:32:29;;;;;;;21.60;14.02;;;12.50;99.90;;;;;;5069486;28;20048;-76
2024/03/15 08:34:58;;;;;;;18.38;13.50;;;12.70;99.90;;;;;;5069604;28;20037;-76
2024/03/15 08:37:24;;;;;;;19.85;13.55;;;12.80;99.90;;;;;;5069881;28;20037;-76
2024/03/15 08:39:51;;;;;;;20.45;13.32;;;12.80;99.90;;;;;;5070019;28;20068;-72
2024/03/15 08:42:17;;;;;;;22.15;12.88;;;12.80;99.90;;;;;;5070247;28;20032;-72
2024/03/15 08:44:43;;;;;;;18.05;12.73;;;12.80;99.90;;;;;;5070404;28;20116;-71
2024/03/15 08:47:09;;;;;;;18.17;12.45;;;12.90;99.90;;;;;;5061869;28;20146;-71
2024/03/15 08:49:36;;;;;;;19.50;13.18;;;13.00;99.90;;;;;;5059949;28;20059;-72
2024/03/15 08:52:03;;;;;;;16.35;11.93;;;13.20;99.90;;;;;;5065442;28;20048;-72
2024/03/15 08:54:29;;;;;;;19.30;12.55;;;13.00;99.90;;;;;;5069664;28;20049;-72
2024/03/15 08:56:56;;;;;;;16.08;11.68;;;13.30;99.90;;;;;;5071022;28;20036;-71
2024/03/15 08:59:23;;;;;;;15.10;10.82;;;13.20;99.90;;;;;;5072470;28;20037;-71
2024/03/15 09:01:48;;;;;;;16.77;10.30;;;13.20;99.90;;;;;;5071072;28;20041;-73
2024/03/15 09:04:15;;;;;;;19.30;10.75;;;13.20;99.90;;;;;;5064709;28;20036;-72
2024/03/15 09:06:41;;;;;;;11.82;9.40;;;13.10;99.90;;;;;;5064546;28;20048;-72
2024/03/15 09:09:16;;;;;;;12.27;8.73;;;13.10;99.90;;;;;;5068177;28;20194;-73
2024/03/15 09:11:43;;;;;;;14.93;8.82;;;13.10;99.90;;;;;;5054116;28;20079;-74
2024/03/15 09:14:10;;;;;;;14.30;9.18;;;13.00;99.90;;;;;;5046205;28;20079;-70
2024/03/15 09:16:37;;;;;;;12.82;8.70;;;13.00;99.90;;;;;;5054106;28;20033;-70
2024/03/15 09:19:03;;;;;;;12.88;8.23;;;12.80;99.90;;;;;;5036293;28;20048;-70
2024/03/15 09:21:32;;;;;;;13.43;9.05;;;12.90;99.90;;;;;;5042417;28;20029;-70
2024/03/15 09:24:00;;;;;;;12.77;8.57;;;12.80;99.90;;;;;;5062078;28;20049;-70
2024/03/15 09:26:27;;;;;;;14.57;9.32;;;12.80;99.90;;;;;;5057015;28;20045;-70
2024/03/15 09:28:55;;;;;;;15.38;9.77;;;12.80;99.90;;;;;;5032405;28;20045;-70
2024/03/15 09:31:24;;;;;;;13.68;9.50;;;12.70;99.90;;;;;;5041220;28;20037;-69
2024/03/15 09:33:51;;;;;;;13.25;9.10;;;12.80;99.90;;;;;;5033550;28;20509;-69
2024/03/15 09:36:18;;;;;;;16.55;8.98;;;12.80;99.90;;;;;;5033632;28;20075;-69
2024/03/15 09:38:47;;;;;;;12.88;8.98;;;12.80;99.90;;;;;;5033599;28;20048;-70
2024/03/15 09:41:16;;;;;;;15.55;9.75;;;12.80;99.90;;;;;;5032219;28;20037;-70
2024/03/15 09:43:45;;;;;;;12.75;8.80;;;12.80;99.90;;;;;;5040027;28;20417;-70
2024/03/15 09:46:18;;;;;;;13.32;9.85;;;12.70;99.90;;;;;;5052221;28;20051;-70
2024/03/15 09:48:44;;;;;;;15.93;9.35;;;12.90;99.90;;;;;;5053397;28;20091;-70
2024/03/15 09:51:14;;;;;;;16.48;9.13;;;12.80;99.90;;;;;;5053337;28;20069;-70
2024/03/15 09:53:40;;;;;;;15.35;8.98;;;13.00;99.90;;;;;;5052814;28;20124;-70
2024/03/15 09:56:14;;;;;;;16.00;9.40;;;13.00;99.90;;;;;;5053102;28;20144;-71
2024/03/15 09:58:51;;;;;;;16.65;9.32;;;13.00;99.90;;;;;;5053005;28;20033;-70
2024/03/15 10:01:17;;;;;;;16.73;8.25;;;13.00;99.90;;;;;;5048655;28;20037;-69
2024/03/15 10:03:50;;;;;;;12.68;8.52;;;13.00;99.90;;;;;;5046578;28;20036;-70
2024/03/15 10:06:19;;;;;;;13.20;7.65;;;13.00;99.90;;;;;;5053056;28;20512;-70
2024/03/15 10:08:44;;;;;;;13.90;7.88;;;12.90;99.90;;;;;;5052590;28;20045;-69
2024/03/15 10:11:10;;;;;;;13.30;9.02;;;12.90;99.90;;;;;;5053003;28;20036;-70
2024/03/15 10:13:36;;;;;;;16.17;8.90;;;12.80;99.90;;;;;;5052480;28;20528;-70
2024/03/15 10:16:04;;;;;;;15.65;8.23;;;12.80;99.90;;;;;;5052894;28;20492;-70
2024/03/15 10:18:33;;;;;;;12.52;6.80;;;12.80;99.90;;;;;;5053019;28;20131;-70
2024/03/15 10:20:59;;;;;;;13.38;6.72;;;12.90;99.90;;;;;;5052534;28;20037;-70
2024/03/15 10:23:25;;;;;;;13.00;7.78;;;12.80;99.90;;;;;;5052023;28;20045;-70
2024/03/15 10:25:52;;;;;;;16.20;8.70;;;12.80;99.90;;;;;;5052941;28;20071;-70
2024/03/15 10:28:20;;;;;;;15.18;8.93;;;12.70;99.90;;;;;;5052703;28;20041;-70
2024/03/15 10:30:47;;;;;;;17.58;8.35;;;12.80;99.90;;;;;;5052573;28;20091;-70
2024/03/15 10:33:13;;;;;;;17.20;7.70;;;12.80;99.90;;;;;;5050604;28;20041;-70
2024/03/15 10:35:39;;;;;;;13.40;7.75;;;12.90;99.90;;;;;;5051292;28;20408;-70
2024/03/15 10:38:06;;;;;;;19.15;8.60;;;12.70;99.90;;;;;;5052298;28;20037;-70
2024/03/15 10:40:34;;;;;;;13.38;7.00;;;12.80;99.90;;;;;;5052189;28;20118;-71
2024/03/15 10:43:08;;;;;;;13.68;6.97;;;12.90;99.90;;;;;;5051800;28;20106;-70
2024/03/15 10:45:35;;;;;;;10.40;6.57;;;12.80;99.90;;;;;;5052454;28;20073;-70
2024/03/15 10:48:06;;;;;;;12.27;6.28;;;12.80;99.90;;;;;;5052158;28;20538;-71
2024/03/15 10:50:33;;;;;;;12.10;6.07;;;12.80;99.90;;;;;;5051956;28;20048;-70
2024/03/15 10:53:05;;;;;;;14.88;6.65;;;13.00;99.90;;;;;;5051489;28;20564;-70
2024/03/15 10:55:30;;;;;;;10.07;5.43;;;13.10;99.90;;;;;;5051016;28;20141;-70
2024/03/15 10:58:00;;;;;;;8.88;5.57;;;13.10;99.90;;;;;;5050671;28;20037;-71
2024/03/15 11:00:30;;;;;;;13.88;5.80;;;13.20;99.90;;;;;;5051862;28;20041;-70
2024/03/15 11:02:57;;;;;;;7.18;4.47;;;13.30;99.90;;;;;;5051292;28;20037;-71
2024/03/15 11:05:30;;;;;;;9.48;5.38;;;13.40;99.90;;;;;;5052125;28;20036;-71
2024/03/15 11:08:06;;;;;;;12.77;5.57;;;13.40;99.90;;;;;;5052032;28;20076;-71
2024/03/15 11:10:32;;;;;;;14.15;5.10;;;13.50;99.90;;;;;;5051622;28;20040;-70
2024/03/15 11:13:01;;;;;;;7.85;4.38;;;13.50;99.90;;;;;;5049945;28;20432;-71
2024/03/15 11:15:37;;;;;;;6.47;4.43;;;13.50;99.90;;;;;;5050590;28;20037;-71
2024/03/15 11:18:07;;;;;;;11.00;5.30;;;13.50;99.90;;;;;;5044744;28;20544;-71
2024/03/15 11:20:46;;;;;;;9.50;4.13;;;13.50;99.90;;;;;;5057259;28;20044;-71
2024/03/15 11:23:17;;;;;;;8.27;3.20;;;13.50;99.90;;;;;;5050641;28;20045;-71
2024/03/15 11:25:58;;;;;;;7.47;3.00;;;13.60;99.90;;;;;;5088318;22;20071;-67
2024/03/15 11:28:25;;;;;;;9.02;2.85;;;13.60;99.90;;;;;;5070881;28;20040;-67
2024/03/15 11:30:50;;;;;;;7.43;2.47;;;13.80;99.90;;;;;;5069846;28;20045;-67
2024/03/15 11:33:16;;;;;;;11.05;2.80;;;13.90;99.90;;;;;;5070842;28;20074;-67
2024/03/15 11:35:43;;;;;;;8.48;2.33;;;13.90;99.90;;;;;;5071285;28;20029;-67
2024/03/15 11:38:13;;;;;;;5.55;2.40;;;13.90;99.90;;;;;;5071175;28;20581;-67
2024/03/15 11:40:40;;;;;;;7.63;2.30;;;14.00;99.90;;;;;;5063272;28;20041;-67
2024/03/15 11:43:10;;;;;;;6.05;2.50;;;14.00;99.90;;;;;;5070577;28;20510;-67
2024/03/15 11:45:39;;;;;;;9.18;2.80;;;14.10;99.90;;;;;;5071147;28;20040;-66
2024/03/15 11:48:15;;;;;;;5.82;2.58;;;14.20;99.90;;;;;;5070102;28;20102;-67
2024/03/15 11:50:42;;;;;;;8.00;3.20;;;14.40;99.90;;;;;;5071041;28;20040;-67
2024/03/15 11:53:10;;;;;;;12.40;3.13;;;14.50;99.90;;;;;;5070874;28;20433;-67
2024/03/15 11:55:36;;;;;;;8.88;3.05;;;14.50;99.90;;;;;;5057438;28;20033;-67
2024/03/15 11:58:02;;;;;;;7.70;3.05;;;14.50;99.90;;;;;;5051571;28;20110;-67
2024/03/15 12:00:27;;;;;;;13.50;3.00;;;14.40;99.90;;;;;;5051287;28;20061;-67
2024/03/15 12:02:55;;;;;;;9.30;3.25;;;14.30;99.90;;;;;;5050836;28;20041;-67
2024/03/15 12:05:21;;;;;;;6.82;2.75;;;14.40;99.90;;;;;;5051196;28;20029;-67
2024/03/15 12:07:47;;;;;;;5.65;2.88;;;14.40;99.90;;;;;;5051472;28;20033;-67
2024/03/15 12:10:14;;;;;;;11.02;3.33;;;14.50;99.90;;;;;;5050992;28;20045;-67
2024/03/15 12:12:44;;;;;;;10.02;3.25;;;14.50;99.90;;;;;;5050976;28;20033;-67
2024/03/15 12:15:29;;;;;;;12.48;3.15;;;14.60;99.90;;;;;;5051195;28;20040;-67
2024/03/15 12:18:02;;;;;;;12.13;3.45;;;14.50;99.90;;;;;;5051214;28;20044;-67
2024/03/15 12:20:29;;;;;;;10.48;3.40;;;14.40;99.90;;;;;;5051165;28;20028;-67
2024/03/15 12:22:56;;;;;;;9.63;3.47;;;14.30;99.90;;;;;;5050728;28;20036;-67
2024/03/15 12:25:26;;;;;;;7.13;3.90;;;14.20;99.90;;;;;;5049045;28;20091;-67
2024/03/15 12:27:52;;;;;;;15.93;5.68;;;14.10;99.90;;;;;;5048539;28;20065;-66
2024/03/15 12:30:17;;;;;;;8.48;4.70;;;14.10;99.90;;;;;;5050402;28;20075;-68
2024/03/15 12:32:43;;;;;;;10.40;4.53;;;14.10;99.90;;;;;;5050806;28;20040;-71
2024/03/15 12:35:09;;;;;;;8.68;4.10;;;14.00;99.90;;;;;;5054313;28;20039;-70
2024/03/15 12:37:35;;;;;;;11.90;4.60;;;14.00;99.90;;;;;;5054964;28;20072;-70
2024/03/15 12:40:03;;;;;;;12.10;4.57;;;14.00;99.90;;;;;;5054816;28;20033;-70
2024/03/15 12:42:29;;;;;;;13.20;5.13;;;14.00;99.90;;;;;;5053130;28;20029;-71
2024/03/15 12:44:55;;;;;;;10.70;5.65;;;13.90;99.90;;;;;;5054692;28;20120;-70